sensor_id;sensor_type;location;lat;lon;timestamp;temperature;humidity
19344;DHT22;9808;52.402;16.678;2022-10-16T00:01:32;13.40;99.90
19344;DHT22;9808;52.402;16.678;2022-10-16T00:04:00;13.00;99.90
19344;DHT22;9808;52.402;16.678;2022-10-16T00:06:28;12.80;99.90
19344;DHT22;9808;52.402;16.678;2022-10-16T00:08:56;14.00;99.90
19344;DHT22;9808;52.402;16.678;2022-10-16T00:11:25;12.90;99.90
19344;DHT22;9808;52.402;16.678;2022-10-16T00:13:56;12.90;99.90
19344;DHT22;9808;52.402;16.678;2022-10-16T00:16:23;12.90;99.90
19344;DHT22;9808;52.402;16.678;2022-10-16T00:18:50;13.70;99.90
19344;DHT22;9808;52.402;16.678;2022-10-16T00:21:19;12.90;99.90
19344;DHT22;9808;52.402;16.678;2022-10-16T00:23:49;12.90;99.90
19344;DHT22;9808;52.402;16.678;2022-10-16T00:26:18;12.90;99.90
19344;DHT22;9808;52.402;16.678;2022-10-16T00:28:49;12.90;99.90
19344;DHT22;9808;52.402;16.678;2022-10-16T00:31:18;13.00;99.90
19344;DHT22;9808;52.402;16.678;2022-10-16T00:33:44;13.80;99.90
19344;DHT22;9808;52.402;16.678;2022-10-16T00:36:14;13.00;99.90
19344;DHT22;9808;52.402;16.678;2022-10-16T00:38:41;13.00;99.90
19344;DHT22;9808;52.402;16.678;2022-10-16T00:41:11;14.60;99.90
19344;DHT22;9808;52.402;16.678;2022-10-16T00:43:44;13.10;99.90
19344;DHT22;9808;52.402;16.678;2022-10-16T00:46:25;13.00;99.90
19344;DHT22;9808;52.402;16.678;2022-10-16T00:49:00;13.10;99.90
19344;DHT22;9808;52.402;16.678;2022-10-16T00:51:37;13.10;99.90
19344;DHT22;9808;52.402;16.678;2022-10-16T00:54:12;13.10;99.90
19344;DHT22;9808;52.402;16.678;2022-10-16T00:56:40;13.10;99.90
19344;DHT22;9808;52.402;16.678;2022-10-16T00:59:33;14.50;99.90
19344;DHT22;9808;52.402;16.678;2022-10-16T01:02:02;13.10;99.90
19344;DHT22;9808;52.402;16.678;2022-10-16T01:04:36;14.10;99.90
19344;DHT22;9808;52.402;16.678;2022-10-16T01:12:59;13.20;99.90
19344;DHT22;9808;52.402;16.678;2022-10-16T01:15:31;13.20;99.90
19344;DHT22;9808;52.402;16.678;2022-10-16T01:18:21;13.30;99.90
19344;DHT22;9808;52.402;16.678;2022-10-16T01:21:10;13.30;99.90
19344;DHT22;9808;52.402;16.678;2022-10-16T01:26:34;13.50;99.90
19344;DHT22;9808;52.402;16.678;2022-10-16T01:35:22;13.40;99.90
19344;DHT22;9808;52.402;16.678;2022-10-16T01:40:47;13.30;99.90
19344;DHT22;9808;52.402;16.678;2022-10-16T01:43:20;13.40;99.90
19344;DHT22;9808;52.402;16.678;2022-10-16T01:45:47;13.70;99.90
19344;DHT22;9808;52.402;16.678;2022-10-16T01:48:17;13.40;99.90
19344;DHT22;9808;52.402;16.678;2022-10-16T01:51:03;13.40;99.90
19344;DHT22;9808;52.402;16.678;2022-10-16T01:53:32;13.40;99.90
19344;DHT22;9808;52.402;16.678;2022-10-16T01:56:00;14.90;99.90
19344;DHT22;9808;52.402;16.678;2022-10-16T01:58:30;13.40;99.90
19344;DHT22;9808;52.402;16.678;2022-10-16T02:01:03;14.70;99.90
19344;DHT22;9808;52.402;16.678;2022-10-16T02:03:31;13.40;99.90
19344;DHT22;9808;52.402;16.678;2022-10-16T02:05:59;13.50;99.90
19344;DHT22;9808;52.402;16.678;2022-10-16T02:08:28;13.50;99.90
19344;DHT22;9808;52.402;16.678;2022-10-16T02:10:57;13.50;99.90
19344;DHT22;9808;52.402;16.678;2022-10-16T02:13:34;13.50;99.90
19344;DHT22;9808;52.402;16.678;2022-10-16T02:16:02;13.50;99.90
19344;DHT22;9808;52.402;16.678;2022-10-16T02:18:29;13.50;99.90
19344;DHT22;9808;52.402;16.678;2022-10-16T02:21:17;13.50;99.90
19344;DHT22;9808;52.402;16.678;2022-10-16T02:23:54;13.50;99.90
19344;DHT22;9808;52.402;16.678;2022-10-16T02:26:32;13.50;99.90
19344;DHT22;9808;52.402;16.678;2022-10-16T02:29:08;13.70;99.90
19344;DHT22;9808;52.402;16.678;2022-10-16T02:31:41;13.50;99.90
19344;DHT22;9808;52.402;16.678;2022-10-16T02:34:10;13.60;99.90
19344;DHT22;9808;52.402;16.678;2022-10-16T02:36:40;13.50;99.90
19344;DHT22;9808;52.402;16.678;2022-10-16T02:39:08;14.50;99.90
19344;DHT22;9808;52.402;16.678;2022-10-16T02:41:35;13.60;99.90
19344;DHT22;9808;52.402;16.678;2022-10-16T02:44:02;13.60;99.90
19344;DHT22;9808;52.402;16.678;2022-10-16T02:46:29;13.60;99.90
19344;DHT22;9808;52.402;16.678;2022-10-16T02:48:55;13.70;99.90
19344;DHT22;9808;52.402;16.678;2022-10-16T02:51:22;13.60;99.90
19344;DHT22;9808;52.402;16.678;2022-10-16T02:53:49;13.60;99.90
19344;DHT22;9808;52.402;16.678;2022-10-16T02:56:15;13.60;99.90
19344;DHT22;9808;52.402;16.678;2022-10-16T02:58:42;14.30;99.90
19344;DHT22;9808;52.402;16.678;2022-10-16T03:01:09;15.20;99.90
19344;DHT22;9808;52.402;16.678;2022-10-16T03:03:36;14.10;99.90
19344;DHT22;9808;52.402;16.678;2022-10-16T03:06:03;13.70;99.90
19344;DHT22;9808;52.402;16.678;2022-10-16T03:08:29;13.70;99.90
19344;DHT22;9808;52.402;16.678;2022-10-16T03:10:57;13.60;99.90
19344;DHT22;9808;52.402;16.678;2022-10-16T03:13:23;14.20;99.90
19344;DHT22;9808;52.402;16.678;2022-10-16T03:15:50;13.70;99.90
19344;DHT22;9808;52.402;16.678;2022-10-16T03:18:17;13.70;99.90
19344;DHT22;9808;52.402;16.678;2022-10-16T03:20:44;13.70;99.90
19344;DHT22;9808;52.402;16.678;2022-10-16T03:23:11;14.40;99.90
19344;DHT22;9808;52.402;16.678;2022-10-16T03:25:38;13.70;99.90
19344;DHT22;9808;52.402;16.678;2022-10-16T03:28:04;13.60;99.90
19344;DHT22;9808;52.402;16.678;2022-10-16T03:30:31;13.60;99.90
19344;DHT22;9808;52.402;16.678;2022-10-16T03:32:58;13.60;99.90
19344;DHT22;9808;52.402;16.678;2022-10-16T03:35:25;13.60;99.90
19344;DHT22;9808;52.402;16.678;2022-10-16T03:37:51;13.60;99.90
19344;DHT22;9808;52.402;16.678;2022-10-16T03:40:19;13.60;99.90
19344;DHT22;9808;52.402;16.678;2022-10-16T03:42:46;13.50;99.90
19344;DHT22;9808;52.402;16.678;2022-10-16T03:45:12;13.60;99.90
19344;DHT22;9808;52.402;16.678;2022-10-16T03:47:39;13.60;99.90
19344;DHT22;9808;52.402;16.678;2022-10-16T03:50:06;13.60;99.90
19344;DHT22;9808;52.402;16.678;2022-10-16T03:52:33;13.60;99.90
19344;DHT22;9808;52.402;16.678;2022-10-16T03:55:00;13.60;99.90
19344;DHT22;9808;52.402;16.678;2022-10-16T03:57:27;13.60;99.90
19344;DHT22;9808;52.402;16.678;2022-10-16T03:59:54;13.70;99.90
19344;DHT22;9808;52.402;16.678;2022-10-16T04:02:21;13.70;99.90
19344;DHT22;9808;52.402;16.678;2022-10-16T04:04:48;14.80;99.90
19344;DHT22;9808;52.402;16.678;2022-10-16T04:07:14;13.70;99.90
19344;DHT22;9808;52.402;16.678;2022-10-16T04:09:41;14.80;99.90
19344;DHT22;9808;52.402;16.678;2022-10-16T04:12:08;13.70;99.90
19344;DHT22;9808;52.402;16.678;2022-10-16T04:14:35;13.80;99.90
19344;DHT22;9808;52.402;16.678;2022-10-16T04:17:01;13.80;99.90
19344;DHT22;9808;52.402;16.678;2022-10-16T04:19:28;13.80;99.90
19344;DHT22;9808;52.402;16.678;2022-10-16T04:21:55;13.80;99.90
19344;DHT22;9808;52.402;16.678;2022-10-16T04:24:21;13.70;99.90
19344;DHT22;9808;52.402;16.678;2022-10-16T04:26:48;14.80;99.90
19344;DHT22;9808;52.402;16.678;2022-10-16T04:29:15;14.00;99.90
19344;DHT22;9808;52.402;16.678;2022-10-16T04:31:42;15.20;99.90
19344;DHT22;9808;52.402;16.678;2022-10-16T04:34:09;13.90;99.90
19344;DHT22;9808;52.402;16.678;2022-10-16T04:36:35;13.90;99.90
19344;DHT22;9808;52.402;16.678;2022-10-16T04:39:02;13.90;99.90
19344;DHT22;9808;52.402;16.678;2022-10-16T04:41:29;13.90;99.90
19344;DHT22;9808;52.402;16.678;2022-10-16T04:43:56;14.10;99.90
19344;DHT22;9808;52.402;16.678;2022-10-16T04:46:22;13.90;99.90
19344;DHT22;9808;52.402;16.678;2022-10-16T04:48:49;13.90;99.90
19344;DHT22;9808;52.402;16.678;2022-10-16T04:51:16;13.90;99.90
19344;DHT22;9808;52.402;16.678;2022-10-16T04:53:42;14.00;99.90
19344;DHT22;9808;52.402;16.678;2022-10-16T04:56:09;14.00;99.90
19344;DHT22;9808;52.402;16.678;2022-10-16T04:58:36;14.00;99.90
19344;DHT22;9808;52.402;16.678;2022-10-16T05:01:03;14.20;99.90
19344;DHT22;9808;52.402;16.678;2022-10-16T05:03:29;14.00;99.90
19344;DHT22;9808;52.402;16.678;2022-10-16T05:06:01;14.20;99.90
19344;DHT22;9808;52.402;16.678;2022-10-16T05:08:28;14.00;99.90
19344;DHT22;9808;52.402;16.678;2022-10-16T05:10:54;14.00;99.90
19344;DHT22;9808;52.402;16.678;2022-10-16T05:13:21;14.00;99.90
19344;DHT22;9808;52.402;16.678;2022-10-16T05:15:49;14.00;99.90
19344;DHT22;9808;52.402;16.678;2022-10-16T05:18:16;14.10;99.90
19344;DHT22;9808;52.402;16.678;2022-10-16T05:20:43;14.00;99.90
19344;DHT22;9808;52.402;16.678;2022-10-16T05:23:10;14.00;99.90
19344;DHT22;9808;52.402;16.678;2022-10-16T05:25:39;14.00;99.90
19344;DHT22;9808;52.402;16.678;2022-10-16T05:28:05;14.00;99.90
19344;DHT22;9808;52.402;16.678;2022-10-16T05:30:32;14.00;99.90
19344;DHT22;9808;52.402;16.678;2022-10-16T05:32:59;14.00;99.90
19344;DHT22;9808;52.402;16.678;2022-10-16T05:35:25;14.00;99.90
19344;DHT22;9808;52.402;16.678;2022-10-16T05:37:52;14.00;99.90
19344;DHT22;9808;52.402;16.678;2022-10-16T05:40:19;14.00;99.90
19344;DHT22;9808;52.402;16.678;2022-10-16T05:42:46;14.00;99.90
19344;DHT22;9808;52.402;16.678;2022-10-16T05:45:12;14.10;99.90
19344;DHT22;9808;52.402;16.678;2022-10-16T05:47:39;13.90;99.90
19344;DHT22;9808;52.402;16.678;2022-10-16T05:50:06;13.90;99.90
19344;DHT22;9808;52.402;16.678;2022-10-16T05:52:33;13.90;99.90
19344;DHT22;9808;52.402;16.678;2022-10-16T05:55:00;13.90;99.90
19344;DHT22;9808;52.402;16.678;2022-10-16T05:57:26;14.50;99.90
19344;DHT22;9808;52.402;16.678;2022-10-16T05:59:54;13.90;99.90
19344;DHT22;9808;52.402;16.678;2022-10-16T06:02:20;13.90;99.90
19344;DHT22;9808;52.402;16.678;2022-10-16T06:04:47;14.10;99.90
19344;DHT22;9808;52.402;16.678;2022-10-16T06:07:14;13.90;99.90
19344;DHT22;9808;52.402;16.678;2022-10-16T06:09:41;13.90;99.90
19344;DHT22;9808;52.402;16.678;2022-10-16T06:12:07;13.90;99.90
19344;DHT22;9808;52.402;16.678;2022-10-16T06:14:34;13.80;99.90
19344;DHT22;9808;52.402;16.678;2022-10-16T06:17:01;13.80;99.90
19344;DHT22;9808;52.402;16.678;2022-10-16T06:19:28;13.80;99.90
19344;DHT22;9808;52.402;16.678;2022-10-16T06:21:54;13.80;99.90
19344;DHT22;9808;52.402;16.678;2022-10-16T06:24:21;13.80;99.90
19344;DHT22;9808;52.402;16.678;2022-10-16T06:26:48;14.70;99.90
19344;DHT22;9808;52.402;16.678;2022-10-16T06:29:15;14.40;99.90
19344;DHT22;9808;52.402;16.678;2022-10-16T06:31:41;13.80;99.90
19344;DHT22;9808;52.402;16.678;2022-10-16T06:34:11;13.80;99.90
19344;DHT22;9808;52.402;16.678;2022-10-16T06:36:39;13.80;99.90
19344;DHT22;9808;52.402;16.678;2022-10-16T06:39:06;13.80;99.90
19344;DHT22;9808;52.402;16.678;2022-10-16T06:41:36;13.80;99.90
19344;DHT22;9808;52.402;16.678;2022-10-16T06:44:05;13.90;99.90
19344;DHT22;9808;52.402;16.678;2022-10-16T06:46:34;13.90;99.90
19344;DHT22;9808;52.402;16.678;2022-10-16T06:49:01;14.30;99.90
19344;DHT22;9808;52.402;16.678;2022-10-16T06:51:28;14.00;99.90
19344;DHT22;9808;52.402;16.678;2022-10-16T06:53:55;14.10;99.90
19344;DHT22;9808;52.402;16.678;2022-10-16T06:56:31;14.10;99.90
19344;DHT22;9808;52.402;16.678;2022-10-16T06:58:58;15.50;99.90
19344;DHT22;9808;52.402;16.678;2022-10-16T07:01:26;14.40;99.90
19344;DHT22;9808;52.402;16.678;2022-10-16T07:03:53;14.40;99.90
19344;DHT22;9808;52.402;16.678;2022-10-16T07:06:22;14.40;99.90
19344;DHT22;9808;52.402;16.678;2022-10-16T07:08:49;14.40;99.90
19344;DHT22;9808;52.402;16.678;2022-10-16T07:11:19;14.90;99.90
19344;DHT22;9808;52.402;16.678;2022-10-16T07:13:47;14.60;99.90
19344;DHT22;9808;52.402;16.678;2022-10-16T07:16:24;14.70;99.90
19344;DHT22;9808;52.402;16.678;2022-10-16T07:18:51;14.90;99.90
19344;DHT22;9808;52.402;16.678;2022-10-16T07:21:24;14.80;99.90
19344;DHT22;9808;52.402;16.678;2022-10-16T07:23:53;14.90;99.90
19344;DHT22;9808;52.402;16.678;2022-10-16T07:26:20;14.90;99.90
19344;DHT22;9808;52.402;16.678;2022-10-16T07:28:47;15.00;99.90
19344;DHT22;9808;52.402;16.678;2022-10-16T07:31:16;15.00;99.90
19344;DHT22;9808;52.402;16.678;2022-10-16T07:33:44;15.00;99.90
19344;DHT22;9808;52.402;16.678;2022-10-16T07:36:12;14.90;99.90
19344;DHT22;9808;52.402;16.678;2022-10-16T07:38:42;15.40;99.90
19344;DHT22;9808;52.402;16.678;2022-10-16T07:41:11;15.10;99.90
19344;DHT22;9808;52.402;16.678;2022-10-16T07:43:38;15.10;99.90
19344;DHT22;9808;52.402;16.678;2022-10-16T07:46:05;15.20;99.90
19344;DHT22;9808;52.402;16.678;2022-10-16T07:48:34;15.10;99.90
19344;DHT22;9808;52.402;16.678;2022-10-16T07:51:03;15.10;99.90
19344;DHT22;9808;52.402;16.678;2022-10-16T07:53:30;15.10;99.90
19344;DHT22;9808;52.402;16.678;2022-10-16T07:56:02;15.20;99.90
19344;DHT22;9808;52.402;16.678;2022-10-16T07:58:30;15.10;99.90
19344;DHT22;9808;52.402;16.678;2022-10-16T08:00:57;15.30;99.90
19344;DHT22;9808;52.402;16.678;2022-10-16T08:03:25;15.30;99.90
19344;DHT22;9808;52.402;16.678;2022-10-16T08:05:52;15.30;99.90
19344;DHT22;9808;52.402;16.678;2022-10-16T08:08:19;15.40;99.90
19344;DHT22;9808;52.402;16.678;2022-10-16T08:10:46;15.50;99.90
19344;DHT22;9808;52.402;16.678;2022-10-16T08:13:12;17.60;99.90
19344;DHT22;9808;52.402;16.678;2022-10-16T08:15:43;15.60;99.90
19344;DHT22;9808;52.402;16.678;2022-10-16T08:18:11;15.70;99.90
19344;DHT22;9808;52.402;16.678;2022-10-16T08:20:40;15.80;99.90
19344;DHT22;9808;52.402;16.678;2022-10-16T08:23:10;15.80;99.90
19344;DHT22;9808;52.402;16.678;2022-10-16T08:25:38;16.00;99.90
19344;DHT22;9808;52.402;16.678;2022-10-16T08:28:06;16.00;99.90
19344;DHT22;9808;52.402;16.678;2022-10-16T08:30:33;16.10;99.90
19344;DHT22;9808;52.402;16.678;2022-10-16T08:33:00;16.10;99.90
19344;DHT22;9808;52.402;16.678;2022-10-16T08:35:27;16.20;99.90
19344;DHT22;9808;52.402;16.678;2022-10-16T08:37:54;16.30;99.90
19344;DHT22;9808;52.402;16.678;2022-10-16T08:40:28;16.50;99.90
19344;DHT22;9808;52.402;16.678;2022-10-16T08:48:41;16.70;99.90
19344;DHT22;9808;52.402;16.678;2022-10-16T08:51:14;16.80;99.90
19344;DHT22;9808;52.402;16.678;2022-10-16T08:53:56;16.80;99.90
19344;DHT22;9808;52.402;16.678;2022-10-16T08:56:25;16.90;99.90
19344;DHT22;9808;52.402;16.678;2022-10-16T08:58:53;17.00;99.90
19344;DHT22;9808;52.402;16.678;2022-10-16T09:01:45;17.10;99.90
19344;DHT22;9808;52.402;16.678;2022-10-16T09:07:21;17.20;99.90
19344;DHT22;9808;52.402;16.678;2022-10-16T09:15:48;17.50;99.90
19344;DHT22;9808;52.402;16.678;2022-10-16T09:23:39;17.70;99.90
19344;DHT22;9808;52.402;16.678;2022-10-16T09:26:12;17.70;99.90
19344;DHT22;9808;52.402;16.678;2022-10-16T09:28:40;17.80;99.90
19344;DHT22;9808;52.402;16.678;2022-10-16T09:31:35;17.90;99.90
19344;DHT22;9808;52.402;16.678;2022-10-16T09:34:04;17.90;99.90
19344;DHT22;9808;52.402;16.678;2022-10-16T09:36:40;17.90;99.90
19344;DHT22;9808;52.402;16.678;2022-10-16T09:39:10;17.90;99.90
19344;DHT22;9808;52.402;16.678;2022-10-16T09:41:41;18.00;99.90
19344;DHT22;9808;52.402;16.678;2022-10-16T09:44:35;19.80;99.90
19344;DHT22;9808;52.402;16.678;2022-10-16T09:47:11;18.10;99.90
19344;DHT22;9808;52.402;16.678;2022-10-16T09:49:38;18.20;99.90
19344;DHT22;9808;52.402;16.678;2022-10-16T09:52:13;18.30;99.90
19344;DHT22;9808;52.402;16.678;2022-10-16T09:54:54;18.30;99.90
19344;DHT22;9808;52.402;16.678;2022-10-16T09:57:22;18.30;99.90
19344;DHT22;9808;52.402;16.678;2022-10-16T09:59:54;18.50;97.90
19344;DHT22;9808;52.402;16.678;2022-10-16T10:02:34;18.50;95.40
19344;DHT22;9808;52.402;16.678;2022-10-16T10:05:02;18.50;96.60
19344;DHT22;9808;52.402;16.678;2022-10-16T10:07:33;18.40;96.50
19344;DHT22;9808;52.402;16.678;2022-10-16T10:10:04;18.50;97.10
19344;DHT22;9808;52.402;16.678;2022-10-16T10:12:32;18.50;96.40
19344;DHT22;9808;52.402;16.678;2022-10-16T10:15:12;18.60;99.90
19344;DHT22;9808;52.402;16.678;2022-10-16T10:17:49;18.60;98.40
19344;DHT22;9808;52.402;16.678;2022-10-16T10:22:56;18.80;97.50
19344;DHT22;9808;52.402;16.678;2022-10-16T10:28:17;18.90;92.10
19344;DHT22;9808;52.402;16.678;2022-10-16T10:31:14;18.90;93.90
19344;DHT22;9808;52.402;16.678;2022-10-16T10:33:49;19.00;93.70
19344;DHT22;9808;52.402;16.678;2022-10-16T10:36:36;19.00;91.50
19344;DHT22;9808;52.402;16.678;2022-10-16T10:42:14;19.20;93.60
19344;DHT22;9808;52.402;16.678;2022-10-16T10:44:56;19.20;91.90
19344;DHT22;9808;52.402;16.678;2022-10-16T10:55:19;19.50;76.20
19344;DHT22;9808;52.402;16.678;2022-10-16T11:06:51;19.60;60.70
19344;DHT22;9808;52.402;16.678;2022-10-16T11:12:05;19.90;62.50
19344;DHT22;9808;52.402;16.678;2022-10-16T11:17:19;19.60;66.60
19344;DHT22;9808;52.402;16.678;2022-10-16T11:19:54;19.60;55.80
19344;DHT22;9808;52.402;16.678;2022-10-16T11:22:33;19.70;57.90
19344;DHT22;9808;52.402;16.678;2022-10-16T11:30:28;19.80;64.80
19344;DHT22;9808;52.402;16.678;2022-10-16T11:33:18;19.80;59.40
19344;DHT22;9808;52.402;16.678;2022-10-16T11:38:53;19.80;58.60
19344;DHT22;9808;52.402;16.678;2022-10-16T11:41:32;19.40;42.90
19344;DHT22;9808;52.402;16.678;2022-10-16T11:44:57;19.90;44.40
19344;DHT22;9808;52.402;16.678;2022-10-16T11:50:33;19.90;46.50
19344;DHT22;9808;52.402;16.678;2022-10-16T11:55:35;20.00;43.10
19344;DHT22;9808;52.402;16.678;2022-10-16T11:58:26;21.10;44.10
19344;DHT22;9808;52.402;16.678;2022-10-16T12:09:00;20.20;42.90
19344;DHT22;9808;52.402;16.678;2022-10-16T12:17:00;20.30;44.40
19344;DHT22;9808;52.402;16.678;2022-10-16T12:19:29;20.10;29.80
19344;DHT22;9808;52.402;16.678;2022-10-16T12:22:01;21.00;30.00
19344;DHT22;9808;52.402;16.678;2022-10-16T12:27:04;20.20;28.70
19344;DHT22;9808;52.402;16.678;2022-10-16T12:29:39;20.10;34.10
19344;DHT22;9808;52.402;16.678;2022-10-16T12:35:24;20.20;20.30
19344;DHT22;9808;52.402;16.678;2022-10-16T12:37:52;20.10;10.70
19344;DHT22;9808;52.402;16.678;2022-10-16T12:42:52;20.10;18.70
19344;DHT22;9808;52.402;16.678;2022-10-16T12:45:33;20.00;21.90
19344;DHT22;9808;52.402;16.678;2022-10-16T12:48:02;20.20;16.60
19344;DHT22;9808;52.402;16.678;2022-10-16T12:50:33;20.20;18.70
19344;DHT22;9808;52.402;16.678;2022-10-16T12:53:02;20.20;13.60
19344;DHT22;9808;52.402;16.678;2022-10-16T12:55:42;20.20;11.50
19344;DHT22;9808;52.402;16.678;2022-10-16T12:58:27;20.20;1.00
19344;DHT22;9808;52.402;16.678;2022-10-16T13:01:09;20.30;4.50
19344;DHT22;9808;52.402;16.678;2022-10-16T13:09:07;20.30;1.00
19344;DHT22;9808;52.402;16.678;2022-10-16T13:18:12;20.30;1.00
19344;DHT22;9808;52.402;16.678;2022-10-16T13:22:59;20.30;1.00
19344;DHT22;9808;52.402;16.678;2022-10-16T13:28:12;20.40;1.00
19344;DHT22;9808;52.402;16.678;2022-10-16T13:30:44;20.30;1.00
19344;DHT22;9808;52.402;16.678;2022-10-16T13:35:56;20.20;1.00
19344;DHT22;9808;52.402;16.678;2022-10-16T13:38:25;20.10;1.00
19344;DHT22;9808;52.402;16.678;2022-10-16T13:40:57;20.30;1.00
19344;DHT22;9808;52.402;16.678;2022-10-16T13:43:37;20.30;1.00
19344;DHT22;9808;52.402;16.678;2022-10-16T13:46:10;20.30;1.00
19344;DHT22;9808;52.402;16.678;2022-10-16T13:48:38;20.30;1.00
19344;DHT22;9808;52.402;16.678;2022-10-16T13:51:16;20.60;1.00
19344;DHT22;9808;52.402;16.678;2022-10-16T13:53:44;21.40;1.00
19344;DHT22;9808;52.402;16.678;2022-10-16T13:56:14;20.20;1.00
19344;DHT22;9808;52.402;16.678;2022-10-16T13:58:41;21.40;1.00
19344;DHT22;9808;52.402;16.678;2022-10-16T14:01:22;20.30;1.00
19344;DHT22;9808;52.402;16.678;2022-10-16T14:04:02;20.20;1.00
19344;DHT22;9808;52.402;16.678;2022-10-16T14:06:29;20.60;1.00
19344;DHT22;9808;52.402;16.678;2022-10-16T14:09:11;20.20;1.00
19344;DHT22;9808;52.402;16.678;2022-10-16T14:11:48;20.20;1.00
19344;DHT22;9808;52.402;16.678;2022-10-16T14:14:15;20.20;1.00
19344;DHT22;9808;52.402;16.678;2022-10-16T14:16:43;20.20;1.00
19344;DHT22;9808;52.402;16.678;2022-10-16T14:21:44;21.30;1.00
19344;DHT22;9808;52.402;16.678;2022-10-16T14:24:12;20.10;1.00
19344;DHT22;9808;52.402;16.678;2022-10-16T14:26:43;20.00;1.00
19344;DHT22;9808;52.402;16.678;2022-10-16T14:29:19;20.00;1.00
19344;DHT22;9808;52.402;16.678;2022-10-16T14:32:00;20.00;1.00
19344;DHT22;9808;52.402;16.678;2022-10-16T14:34:36;20.00;1.00
19344;DHT22;9808;52.402;16.678;2022-10-16T14:37:24;20.10;1.00
19344;DHT22;9808;52.402;16.678;2022-10-16T14:39:54;19.90;1.00
19344;DHT22;9808;52.402;16.678;2022-10-16T14:42:23;19.80;1.00
19344;DHT22;9808;52.402;16.678;2022-10-16T14:44:52;19.80;1.00
19344;DHT22;9808;52.402;16.678;2022-10-16T14:47:22;19.80;1.00
19344;DHT22;9808;52.402;16.678;2022-10-16T14:49:53;19.70;1.00
19344;DHT22;9808;52.402;16.678;2022-10-16T14:52:25;19.80;1.00
19344;DHT22;9808;52.402;16.678;2022-10-16T14:54:52;19.60;1.00
19344;DHT22;9808;52.402;16.678;2022-10-16T14:57:26;19.50;1.00
19344;DHT22;9808;52.402;16.678;2022-10-16T14:59:54;19.50;1.00
19344;DHT22;9808;52.402;16.678;2022-10-16T15:02:28;19.40;1.00
19344;DHT22;9808;52.402;16.678;2022-10-16T15:04:56;19.40;1.70
19344;DHT22;9808;52.402;16.678;2022-10-16T15:07:23;19.40;4.50
19344;DHT22;9808;52.402;16.678;2022-10-16T15:09:51;19.30;4.30
19344;DHT22;9808;52.402;16.678;2022-10-16T15:12:18;19.30;4.40
19344;DHT22;9808;52.402;16.678;2022-10-16T15:14:44;19.30;1.00
19344;DHT22;9808;52.402;16.678;2022-10-16T15:17:11;19.20;4.30
19344;DHT22;9808;52.402;16.678;2022-10-16T15:19:40;19.20;5.80
19344;DHT22;9808;52.402;16.678;2022-10-16T15:22:10;19.10;6.60
19344;DHT22;9808;52.402;16.678;2022-10-16T15:24:38;19.00;10.20
19344;DHT22;9808;52.402;16.678;2022-10-16T15:27:04;19.00;9.20
19344;DHT22;9808;52.402;16.678;2022-10-16T15:29:31;19.00;10.50
19344;DHT22;9808;52.402;16.678;2022-10-16T15:31:58;19.80;11.00
19344;DHT22;9808;52.402;16.678;2022-10-16T15:34:25;18.80;13.20
19344;DHT22;9808;52.402;16.678;2022-10-16T15:36:51;20.10;12.60
19344;DHT22;9808;52.402;16.678;2022-10-16T15:39:19;20.40;14.80
19344;DHT22;9808;52.402;16.678;2022-10-16T15:41:47;18.70;17.70
19344;DHT22;9808;52.402;16.678;2022-10-16T15:44:17;20.00;18.60
19344;DHT22;9808;52.402;16.678;2022-10-16T15:46:44;18.50;20.20
19344;DHT22;9808;52.402;16.678;2022-10-16T15:49:11;21.10;23.20
19344;DHT22;9808;52.402;16.678;2022-10-16T15:51:40;17.80;24.10
19344;DHT22;9808;52.402;16.678;2022-10-16T15:54:08;18.40;26.70
19344;DHT22;9808;52.402;16.678;2022-10-16T15:56:35;20.00;29.30
19344;DHT22;9808;52.402;16.678;2022-10-16T15:59:04;18.20;30.60
19344;DHT22;9808;52.402;16.678;2022-10-16T16:01:34;18.20;33.10
19344;DHT22;9808;52.402;16.678;2022-10-16T16:04:04;18.10;36.50
19344;DHT22;9808;52.402;16.678;2022-10-16T16:06:45;18.90;40.10
19344;DHT22;9808;52.402;16.678;2022-10-16T16:09:13;17.30;42.50
19344;DHT22;9808;52.402;16.678;2022-10-16T16:11:40;17.80;46.90
19344;DHT22;9808;52.402;16.678;2022-10-16T16:14:07;17.80;49.10
19344;DHT22;9808;52.402;16.678;2022-10-16T16:16:37;17.70;49.50
19344;DHT22;9808;52.402;16.678;2022-10-16T16:19:05;17.50;54.10
19344;DHT22;9808;52.402;16.678;2022-10-16T16:21:37;17.50;56.00
19344;DHT22;9808;52.402;16.678;2022-10-16T16:24:04;18.70;57.40
19344;DHT22;9808;52.402;16.678;2022-10-16T16:26:35;17.30;58.80
19344;DHT22;9808;52.402;16.678;2022-10-16T16:29:07;17.20;61.10
19344;DHT22;9808;52.402;16.678;2022-10-16T16:31:34;17.10;61.90
19344;DHT22;9808;52.402;16.678;2022-10-16T16:34:01;17.10;63.40
19344;DHT22;9808;52.402;16.678;2022-10-16T16:36:28;17.00;64.00
19344;DHT22;9808;52.402;16.678;2022-10-16T16:38:54;17.60;65.70
19344;DHT22;9808;52.402;16.678;2022-10-16T16:41:23;16.90;66.50
19344;DHT22;9808;52.402;16.678;2022-10-16T16:43:52;16.70;67.80
19344;DHT22;9808;52.402;16.678;2022-10-16T16:46:20;16.60;67.40
19344;DHT22;9808;52.402;16.678;2022-10-16T16:48:47;16.60;68.00
19344;DHT22;9808;52.402;16.678;2022-10-16T16:51:17;16.60;68.60
19344;DHT22;9808;52.402;16.678;2022-10-16T16:53:47;16.40;70.90
19344;DHT22;9808;52.402;16.678;2022-10-16T16:56:14;16.30;74.10
19344;DHT22;9808;52.402;16.678;2022-10-16T16:58:43;16.30;77.20
19344;DHT22;9808;52.402;16.678;2022-10-16T17:01:11;16.20;82.90
19344;DHT22;9808;52.402;16.678;2022-10-16T17:03:49;16.10;82.80
19344;DHT22;9808;52.402;16.678;2022-10-16T17:06:22;16.00;84.80
19344;DHT22;9808;52.402;16.678;2022-10-16T17:08:49;15.90;85.40
19344;DHT22;9808;52.402;16.678;2022-10-16T17:11:20;15.90;90.00
19344;DHT22;9808;52.402;16.678;2022-10-16T17:13:47;15.80;91.00
19344;DHT22;9808;52.402;16.678;2022-10-16T17:16:22;15.60;91.20
19344;DHT22;9808;52.402;16.678;2022-10-16T17:18:49;15.60;91.60
19344;DHT22;9808;52.402;16.678;2022-10-16T17:21:16;15.60;91.90
19344;DHT22;9808;52.402;16.678;2022-10-16T17:23:43;15.50;92.00
19344;DHT22;9808;52.402;16.678;2022-10-16T17:26:12;15.40;92.50
19344;DHT22;9808;52.402;16.678;2022-10-16T17:28:40;15.40;92.40
19344;DHT22;9808;52.402;16.678;2022-10-16T17:31:15;15.20;93.30
19344;DHT22;9808;52.402;16.678;2022-10-16T17:33:42;15.30;93.90
19344;DHT22;9808;52.402;16.678;2022-10-16T17:36:10;15.20;94.10
19344;DHT22;9808;52.402;16.678;2022-10-16T17:38:37;15.10;94.50
19344;DHT22;9808;52.402;16.678;2022-10-16T17:41:12;14.70;95.20
19344;DHT22;9808;52.402;16.678;2022-10-16T17:43:40;15.00;95.90
19344;DHT22;9808;52.402;16.678;2022-10-16T17:46:08;15.00;96.70
19344;DHT22;9808;52.402;16.678;2022-10-16T17:48:39;14.90;98.30
19344;DHT22;9808;52.402;16.678;2022-10-16T17:51:08;14.90;98.20
19344;DHT22;9808;52.402;16.678;2022-10-16T17:53:37;14.80;98.80
19344;DHT22;9808;52.402;16.678;2022-10-16T17:56:10;15.30;99.90
19344;DHT22;9808;52.402;16.678;2022-10-16T17:58:38;14.70;99.90